This is the latest recevied weather packets stored in our database for station/object WB0RXX. If no packets are shown the sender has not sent any weather packets the latest 10 day(s).
| Time | Temp. | Humidity | Pressure | Rain* | Wind** | Luminosity | Snow |
|---|---|---|---|---|---|---|---|
| 1777582204 | 10.56° C | 56% | 1017.8 hPa | 0 mm | - | - | - |
| 1777580419 | 11.11° C | 48% | 1018 hPa | 0 mm | - | - | - |
| 1777579806 | 11.67° C | 46% | 1017.9 hPa | 0 mm | - | - | - |
| 1777577405 | 11.67° C | 47% | 1018.2 hPa | 0 mm | - | - | - |
| 1777576204 | 11.11° C | 47% | 1018.5 hPa | 0 mm | - | - | - |
| 1777573204 | 9.44° C | 53% | 1019.3 hPa | 0 mm | - | - | - |
| 1777571420 | 8.89° C | 55% | 1019.7 hPa | 0 mm | - | - | - |
| 1777570203 | 7.78° C | 53% | 1019.9 hPa | 0 mm | - | - | - |
| 1777568420 | 7.78° C | 55% | 1020 hPa | 0 mm | - | - | - |
| 1777566619 | 7.22° C | 56% | 1020.3 hPa | 0 mm | - | - | - |
| 1777566003 | 7.22° C | 56% | 1020.6 hPa | 0 mm | - | - | - |
| 1777564820 | 6.67° C | 57% | 1020.5 hPa | 0 mm | - | - | - |
| 1777562404 | 6.67° C | 59% | 1020.4 hPa | 0 mm | - | - | - |
| 1777559403 | 4.44° C | 62% | 1020.5 hPa | 0 mm | - | - | - |
| 1777555220 | 2.78° C | 71% | 1020.4 hPa | 0 mm | - | - | - |
| 1777552204 | 1.67° C | 77% | 1020.3 hPa | 0 mm | - | - | - |
| 1777549804 | 1.11° C | 78% | 1020.3 hPa | 0 mm | - | - | - |
| 1777547419 | 1.11° C | 76% | 1020.1 hPa | 0 mm | - | - | - |
| 1777545004 | 2.22° C | 74% | 1020.1 hPa | 0 mm | - | - | - |
| 1777544404 | 2.22° C | 74% | 1020 hPa | 0 mm | - | - | - |
| 1777543803 | 2.22° C | 74% | 1019.9 hPa | 0 mm | - | - | - |
| 1777542619 | 2.78° C | 75% | 1020 hPa | 0 mm | - | - | - |
| 1777542004 | 2.78° C | 75% | 1020 hPa | 0 mm | - | - | - |
| 1777541405 | 3.33° C | 76% | 1019.9 hPa | 0 mm | - | - | - |
| 1777540803 | 3.33° C | 75% | 1020 hPa | 0 mm | - | - | - |
* Rain latest hour (hover to see other rain measurements)
** Current wind speed in m/s (hover to see current wind gust speed)